createdAt,value
2019-05-11T00:00:58.818Z,44.93
2019-05-11T00:03:30.491Z,44.66
2019-05-11T00:06:02.962Z,44.95
2019-05-11T00:08:34.515Z,44.90
2019-05-11T00:11:05.883Z,45.18
2019-05-11T00:13:37.019Z,45.07
2019-05-11T00:16:08.781Z,45.07
2019-05-11T00:18:40.240Z,45.25
2019-05-11T00:21:11.750Z,45.41
2019-05-11T00:23:43.248Z,45.49
2019-05-11T00:26:14.799Z,45.70
2019-05-11T00:28:46.463Z,45.77
2019-05-11T00:31:17.924Z,45.87
2019-05-11T00:33:49.063Z,46.22
2019-05-11T00:36:20.525Z,46.50
2019-05-11T00:38:51.870Z,46.46
2019-05-11T00:41:23.054Z,46.51
2019-05-11T00:43:54.268Z,46.52
2019-05-11T00:46:25.724Z,46.63
2019-05-11T00:48:57.094Z,46.56
2019-05-11T00:51:28.432Z,46.65
2019-05-11T00:53:59.990Z,46.62
2019-05-11T00:56:31.049Z,46.58
2019-05-11T00:59:02.185Z,46.49
2019-05-11T01:01:34.561Z,46.42
2019-05-11T01:04:05.942Z,46.42
2019-05-11T01:06:37.757Z,46.55
2019-05-11T01:09:09.129Z,46.66
2019-05-11T01:11:40.682Z,46.70
2019-05-11T01:14:12.347Z,46.69
2019-05-11T01:16:43.486Z,46.73
2019-05-11T01:19:14.841Z,46.75
2019-05-11T01:21:46.308Z,46.78
2019-05-11T01:24:17.552Z,46.83
2019-05-11T01:26:49.726Z,46.77
2019-05-11T01:29:20.964Z,46.86
2019-05-11T01:31:53.544Z,46.98
2019-05-11T01:34:25.000Z,47.09
2019-05-11T01:36:56.561Z,46.93
2019-05-11T01:39:28.117Z,46.95
2019-05-11T01:41:59.262Z,46.97
2019-05-11T01:44:30.440Z,47.05
2019-05-11T01:47:02.095Z,47.12
2019-05-11T01:49:33.323Z,47.24
2019-05-11T01:52:04.474Z,47.56
2019-05-11T01:54:36.538Z,47.73
2019-05-11T01:57:07.792Z,47.73
2019-05-11T01:59:38.942Z,47.87
2019-05-11T02:02:10.605Z,48.14
2019-05-11T02:04:41.991Z,48.23
2019-05-11T02:07:13.513Z,48.24
2019-05-11T02:09:44.651Z,48.23
2019-05-11T02:12:16.118Z,48.10
2019-05-11T02:14:47.359Z,48.36
2019-05-11T02:17:18.710Z,48.42
2019-05-11T02:19:50.168Z,48.68
2019-05-11T02:22:21.627Z,48.77
2019-05-11T02:24:53.283Z,48.96
2019-05-11T02:27:24.647Z,49.07
2019-05-11T02:29:55.778Z,49.11
2019-05-11T02:32:27.442Z,49.14
2019-05-11T02:34:58.930Z,49.04
2019-05-11T02:37:30.051Z,49.13
2019-05-11T02:40:01.657Z,49.23
2019-05-11T02:42:33.163Z,49.26
2019-05-11T02:45:06.630Z,49.25
2019-05-11T02:47:37.867Z,49.38
2019-05-11T02:50:09.161Z,49.38
2019-05-11T02:52:41.847Z,49.28
2019-05-11T02:55:13.226Z,49.26
2019-05-11T02:57:44.761Z,49.18
2019-05-11T03:00:19.393Z,48.85
2019-05-11T03:02:51.057Z,48.70
2019-05-11T03:05:22.810Z,48.47
2019-05-11T03:07:54.481Z,48.56
2019-05-11T03:10:26.032Z,48.23
2019-05-11T03:12:57.406Z,48.09
2019-05-11T03:15:28.818Z,48.25
2019-05-11T03:18:02.181Z,48.40
2019-05-11T03:20:33.594Z,48.13
2019-05-11T03:23:05.257Z,47.71
2019-05-11T03:25:36.610Z,47.54
2019-05-11T03:28:07.957Z,47.52
2019-05-11T03:30:39.326Z,47.55
2019-05-11T03:33:10.566Z,47.48
2019-05-11T03:35:42.019Z,47.29
2019-05-11T03:38:13.572Z,47.38
2019-05-11T03:40:44.723Z,47.32
2019-05-11T03:43:16.279Z,47.42
2019-05-11T03:45:47.630Z,47.47
2019-05-11T03:48:19.203Z,47.48
2019-05-11T03:50:50.433Z,47.45
2019-05-11T03:53:22.013Z,47.24
2019-05-11T03:55:53.338Z,47.22
2019-05-11T03:58:26.599Z,47.10
2019-05-11T04:00:58.407Z,46.63
2019-05-11T04:03:29.971Z,46.67
2019-05-11T04:06:01.626Z,46.51
2019-05-11T04:08:35.956Z,46.25
2019-05-11T04:11:07.822Z,46.25
2019-05-11T04:13:39.584Z,46.20
2019-05-11T04:16:11.340Z,46.00
2019-05-11T04:18:42.898Z,45.97
2019-05-11T04:21:14.457Z,45.54
2019-05-11T04:23:45.842Z,45.37
2019-05-11T04:26:17.371Z,44.99
2019-05-11T04:28:49.050Z,44.20
2019-05-11T04:31:20.278Z,43.94
2019-05-11T04:33:52.788Z,43.62
2019-05-11T04:36:25.764Z,43.58
2019-05-11T04:38:57.227Z,43.58
2019-05-11T04:41:28.970Z,43.24
2019-05-11T04:44:00.833Z,43.00
2019-05-11T04:46:32.595Z,43.08
2019-05-11T04:49:04.072Z,42.89
2019-05-11T04:51:35.503Z,42.36
2019-05-11T04:54:07.063Z,42.52
2019-05-11T04:56:38.931Z,42.20
2019-05-11T04:59:10.388Z,41.59
2019-05-11T05:01:41.649Z,40.96
2019-05-11T05:04:14.368Z,39.77
2019-05-11T05:06:58.845Z,39.42
2019-05-11T05:09:19.298Z,39.30
2019-05-11T05:11:50.955Z,38.65
2019-05-11T05:14:25.161Z,38.64
2019-05-11T05:16:56.713Z,38.37
2019-05-11T05:19:28.262Z,38.10
2019-05-11T05:22:03.898Z,37.69
2019-05-11T05:24:36.485Z,37.36
2019-05-11T05:27:08.252Z,37.05
2019-05-11T05:29:40.640Z,36.98
2019-05-11T05:32:12.502Z,36.24
2019-05-11T05:34:45.379Z,35.53
2019-05-11T05:37:17.142Z,35.68
2019-05-11T05:39:50.186Z,35.42
2019-05-11T05:42:22.181Z,35.11
2019-05-11T05:44:53.775Z,35.36
2019-05-11T05:47:24.969Z,35.09
2019-05-11T05:49:56.784Z,35.11
2019-05-11T05:52:31.193Z,35.21
2019-05-11T05:55:05.181Z,35.57
2019-05-11T05:57:36.534Z,35.98
2019-05-11T06:00:08.295Z,35.76
2019-05-11T06:02:41.692Z,35.49
2019-05-11T06:05:13.574Z,34.80
2019-05-11T06:07:45.314Z,34.78
2019-05-11T06:10:16.874Z,34.76
2019-05-11T06:12:48.230Z,34.29
2019-05-11T06:15:19.759Z,33.72
2019-05-11T06:17:51.451Z,32.88
2019-05-11T06:20:24.447Z,32.16
2019-05-11T06:22:55.691Z,31.38
2019-05-11T06:25:27.859Z,31.44
2019-05-11T06:28:00.033Z,31.47
2019-05-11T06:30:32.717Z,31.46
2019-05-11T06:33:10.328Z,31.52
2019-05-11T06:35:42.807Z,31.18
2019-05-11T06:38:15.211Z,30.90
2019-05-11T06:40:48.464Z,30.90
2019-05-11T06:43:19.753Z,30.83
2019-05-11T06:45:50.898Z,30.19
2019-05-11T06:48:22.450Z,30.33
2019-05-11T06:50:54.636Z,30.14
2019-05-11T06:53:28.327Z,30.17
2019-05-11T06:56:00.801Z,30.65
2019-05-11T06:58:33.063Z,30.40
2019-05-11T07:01:07.303Z,30.24
2019-05-11T07:03:40.004Z,30.42
2019-05-11T07:06:12.251Z,30.78
2019-05-11T07:08:44.680Z,30.45
2019-05-11T07:11:16.407Z,30.78
2019-05-11T07:13:48.243Z,30.25
2019-05-11T07:16:19.487Z,30.45
2019-05-11T07:18:50.970Z,30.53
2019-05-11T07:21:23.447Z,30.14
2019-05-11T07:23:55.000Z,30.04
2019-05-11T07:26:30.035Z,29.99
2019-05-11T07:29:01.263Z,30.05
2019-05-11T07:31:33.027Z,30.12
2019-05-11T07:34:08.114Z,30.05
2019-05-11T07:36:39.438Z,29.57
2019-05-11T07:39:11.212Z,28.97
2019-05-11T07:41:42.626Z,29.16
2019-05-11T07:44:14.087Z,28.20
2019-05-11T07:46:45.539Z,28.12
2019-05-11T07:49:17.962Z,28.91
2019-05-11T07:51:49.161Z,29.02
2019-05-11T07:54:20.494Z,28.94
2019-05-11T07:56:51.638Z,28.37
2019-05-11T07:59:23.094Z,27.86
2019-05-11T08:01:54.651Z,28.11
2019-05-11T08:04:28.588Z,27.39
2019-05-11T08:06:59.417Z,27.44
2019-05-11T08:09:32.764Z,26.55
2019-05-11T08:12:05.195Z,25.79
2019-05-11T08:14:55.898Z,25.80
2019-05-11T08:17:09.928Z,26.02
2019-05-11T08:19:42.092Z,25.98
2019-05-11T08:22:13.546Z,25.46
2019-05-11T08:24:44.807Z,25.86
2019-05-11T08:27:18.506Z,25.60
2019-05-11T08:29:48.959Z,25.41
2019-05-11T08:32:20.584Z,25.24
2019-05-11T08:34:51.849Z,25.13
2019-05-11T08:37:23.293Z,25.20
2019-05-11T08:39:54.545Z,24.34
2019-05-11T08:42:28.670Z,24.36
2019-05-11T08:45:15.287Z,24.41
2019-05-11T08:47:31.561Z,24.75
2019-05-11T08:50:08.034Z,24.86
2019-05-11T08:52:40.178Z,24.76
2019-05-11T08:55:11.347Z,25.17
2019-05-11T08:57:42.932Z,26.26
2019-05-11T09:00:14.599Z,26.51
2019-05-11T09:02:50.536Z,27.01
2019-05-11T09:05:20.652Z,27.25
2019-05-11T09:07:52.641Z,27.75
2019-05-11T09:10:24.595Z,28.00
2019-05-11T09:12:55.962Z,27.81
2019-05-11T09:15:36.282Z,27.95
2019-05-11T09:18:01.855Z,28.37
2019-05-11T09:20:33.790Z,28.33
2019-05-11T09:23:05.141Z,28.38
2019-05-11T09:25:38.459Z,28.54
2019-05-11T09:28:09.700Z,28.52
2019-05-11T09:30:40.999Z,29.08
2019-05-11T09:33:17.719Z,29.21
2019-05-11T09:35:52.510Z,29.73
2019-05-11T09:38:19.996Z,30.29
2019-05-11T09:40:51.363Z,29.72
2019-05-11T09:43:22.796Z,29.71
2019-05-11T09:45:54.143Z,29.71
2019-05-11T09:48:25.611Z,29.98
2019-05-11T09:50:58.759Z,30.00
2019-05-11T09:53:30.799Z,30.00
2019-05-11T09:56:01.900Z,29.87
2019-05-11T09:58:33.348Z,30.25
2019-05-11T10:01:05.519Z,29.98
2019-05-11T10:03:38.721Z,29.88
2019-05-11T10:06:10.272Z,29.83
2019-05-11T10:08:41.929Z,29.88
2019-05-11T10:11:13.593Z,29.88
2019-05-11T10:13:47.773Z,29.78
2019-05-11T10:16:21.661Z,30.13
2019-05-11T10:18:58.987Z,30.17
2019-05-11T10:21:30.360Z,30.08
2019-05-11T10:24:02.759Z,29.96
2019-05-11T10:26:34.947Z,30.03
2019-05-11T10:29:07.918Z,30.37
2019-05-11T10:31:39.858Z,30.50
2019-05-11T10:34:12.658Z,30.68
2019-05-11T10:36:44.191Z,30.90
2019-05-11T10:39:18.433Z,31.27
2019-05-11T10:41:49.019Z,30.79
2019-05-11T10:44:20.692Z,30.52
2019-05-11T10:46:52.259Z,30.16
2019-05-11T10:49:23.790Z,30.04
2019-05-11T10:51:55.224Z,30.28
2019-05-11T10:54:28.663Z,30.35
2019-05-11T10:57:00.077Z,30.51
2019-05-11T10:59:31.221Z,30.19
2019-05-11T11:02:02.563Z,30.08
2019-05-11T11:04:33.926Z,30.31
2019-05-11T11:07:07.611Z,30.50
2019-05-11T11:09:41.227Z,30.44
2019-05-11T11:12:12.584Z,30.32
2019-05-11T11:14:44.251Z,30.12
2019-05-11T11:17:15.592Z,29.80
2019-05-11T11:19:48.595Z,29.42
2019-05-11T11:22:36.148Z,29.58
2019-05-11T11:24:53.114Z,29.63
2019-05-11T11:27:24.193Z,29.57
2019-05-11T11:29:58.126Z,29.89
2019-05-11T11:32:28.701Z,30.25
2019-05-11T11:35:01.469Z,30.41
2019-05-11T11:37:33.048Z,29.91
2019-05-11T11:40:08.525Z,30.22
2019-05-11T11:42:40.517Z,30.19
2019-05-11T11:45:11.700Z,30.92
2019-05-11T11:47:43.456Z,31.10
2019-05-11T11:50:14.613Z,31.82
2019-05-11T11:52:47.679Z,31.83
2019-05-11T11:55:19.662Z,32.35
2019-05-11T11:57:51.110Z,32.73
2019-05-11T12:00:22.472Z,33.52
2019-05-11T12:02:54.155Z,33.48
2019-05-11T12:05:25.574Z,33.44
2019-05-11T12:07:57.975Z,33.72
2019-05-11T12:10:29.394Z,34.02
2019-05-11T12:13:00.855Z,34.22
2019-05-11T12:15:32.709Z,34.42
2019-05-11T12:18:03.955Z,35.20
2019-05-11T12:20:35.206Z,36.04
2019-05-11T12:23:08.679Z,36.53
2019-05-11T12:25:40.773Z,37.11
2019-05-11T12:28:12.127Z,38.07
2019-05-11T12:30:43.278Z,38.47
2019-05-11T12:33:14.830Z,38.64
2019-05-11T12:35:47.999Z,38.88
2019-05-11T12:38:18.764Z,38.06
2019-05-11T12:40:50.117Z,37.81
2019-05-11T12:43:22.621Z,37.38
2019-05-11T12:45:53.944Z,36.87
2019-05-11T12:48:25.610Z,36.67
2019-05-11T12:50:58.805Z,36.55
2019-05-11T12:53:30.147Z,36.54
2019-05-11T12:56:01.812Z,36.54
2019-05-11T12:58:33.687Z,36.83
2019-05-11T13:01:05.231Z,37.57
2019-05-11T13:03:38.554Z,38.51
2019-05-11T13:06:09.576Z,39.09
2019-05-11T13:08:40.824Z,39.75
2019-05-11T13:11:12.381Z,40.45
2019-05-11T13:13:44.149Z,40.74
2019-05-11T13:16:17.657Z,40.94
2019-05-11T13:18:48.771Z,41.19
2019-05-11T13:21:20.204Z,40.94
2019-05-11T13:23:51.907Z,41.27
2019-05-11T13:26:23.257Z,40.72
2019-05-11T13:28:54.609Z,41.45
2019-05-11T13:31:27.798Z,41.55
2019-05-11T13:33:59.056Z,41.43
2019-05-11T13:36:30.361Z,41.85
2019-05-11T13:39:02.063Z,41.87
2019-05-11T13:41:33.549Z,41.86
2019-05-11T13:44:05.077Z,42.04
2019-05-11T13:46:36.223Z,42.07
2019-05-11T13:49:08.775Z,42.18
2019-05-11T13:51:39.947Z,41.64
2019-05-11T13:54:11.710Z,41.21
2019-05-11T13:56:43.161Z,40.63
2019-05-11T13:59:14.622Z,40.09
2019-05-11T14:01:47.813Z,39.24
2019-05-11T14:04:18.507Z,38.71
2019-05-11T14:06:49.600Z,37.92
2019-05-11T14:09:20.753Z,37.37
2019-05-11T14:11:52.329Z,36.95
2019-05-11T14:14:23.646Z,36.48
2019-05-11T14:16:55.103Z,35.75
2019-05-11T14:19:29.016Z,35.61
2019-05-11T14:22:00.265Z,35.05
2019-05-11T14:24:31.605Z,34.26
2019-05-11T14:27:03.178Z,34.40
2019-05-11T14:29:34.429Z,34.57
2019-05-11T14:32:05.775Z,34.90
2019-05-11T14:34:38.736Z,34.79
2019-05-11T14:37:11.039Z,33.30
2019-05-11T14:39:42.691Z,33.25
2019-05-11T14:42:14.045Z,32.42
2019-05-11T14:44:48.287Z,31.62
2019-05-11T14:47:19.518Z,30.22
2019-05-11T14:49:50.977Z,28.68
2019-05-11T14:52:22.529Z,28.27
2019-05-11T14:54:53.780Z,28.27
2019-05-11T14:57:24.922Z,28.07
2019-05-11T14:59:58.458Z,28.02
2019-05-11T15:02:49.102Z,27.81
2019-05-11T15:05:21.018Z,27.51
2019-05-11T15:07:53.116Z,26.92
2019-05-11T15:10:24.521Z,26.60
2019-05-11T15:12:59.085Z,26.88
2019-05-11T15:15:32.027Z,28.08
2019-05-11T15:18:03.789Z,29.32
2019-05-11T15:20:35.143Z,30.29
2019-05-11T15:23:08.598Z,31.27
2019-05-11T15:25:39.790Z,32.06
2019-05-11T15:28:11.040Z,32.88
2019-05-11T15:30:42.490Z,33.90
2019-05-11T15:33:14.050Z,34.52
2019-05-11T15:35:47.835Z,35.05
2019-05-11T15:38:19.203Z,35.43
2019-05-11T15:40:50.684Z,35.67
2019-05-11T15:43:22.111Z,36.02
2019-05-11T15:45:53.462Z,36.64
2019-05-11T15:48:24.816Z,37.18
2019-05-11T15:50:57.800Z,37.63
2019-05-11T15:53:29.056Z,38.34
2019-05-11T15:56:00.705Z,38.85
2019-05-11T15:58:32.160Z,39.26
2019-05-11T16:01:03.818Z,39.88
2019-05-11T16:03:35.385Z,40.26
2019-05-11T16:06:07.913Z,40.58
2019-05-11T16:08:39.201Z,40.88
2019-05-11T16:11:10.652Z,41.08
2019-05-11T16:13:41.916Z,41.59
2019-05-11T16:16:13.265Z,41.70
2019-05-11T16:18:44.604Z,42.00
2019-05-11T16:21:18.103Z,42.13
2019-05-11T16:23:49.572Z,42.13
2019-05-11T16:26:21.830Z,42.27
2019-05-11T16:28:53.281Z,42.34
2019-05-11T16:31:24.953Z,42.44
2019-05-11T16:33:58.753Z,42.71
2019-05-11T16:36:29.492Z,42.70
2019-05-11T16:39:01.146Z,42.90
2019-05-11T16:41:33.117Z,42.95
2019-05-11T16:44:04.775Z,43.14
2019-05-11T16:46:38.957Z,43.18
2019-05-11T16:49:24.895Z,43.21
2019-05-11T16:51:43.507Z,43.40
2019-05-11T16:54:15.092Z,43.64
2019-05-11T16:56:48.687Z,43.96
2019-05-11T16:59:19.747Z,43.88
2019-05-11T17:01:51.400Z,44.12
2019-05-11T17:04:23.071Z,44.36
2019-05-11T17:06:57.785Z,44.56
2019-05-11T17:09:29.035Z,44.69
2019-05-11T17:12:00.697Z,44.88
2019-05-11T17:14:32.353Z,45.17
2019-05-11T17:17:04.019Z,45.29
2019-05-11T17:19:45.346Z,45.48
2019-05-11T17:22:08.583Z,45.57
2019-05-11T17:24:40.635Z,45.74
2019-05-11T17:27:12.189Z,45.89
2019-05-11T17:29:44.153Z,45.94
2019-05-11T17:32:17.750Z,46.08
2019-05-11T17:34:48.699Z,46.05
2019-05-11T17:37:19.952Z,46.17
2019-05-11T17:39:51.093Z,46.24
2019-05-11T17:42:22.259Z,46.51
2019-05-11T17:44:53.699Z,46.32
2019-05-11T17:47:25.163Z,46.36
2019-05-11T17:50:03.272Z,46.40
2019-05-11T17:52:29.397Z,46.69
2019-05-11T17:55:00.649Z,46.66
2019-05-11T17:57:32.003Z,46.72
2019-05-11T18:00:04.474Z,46.78
2019-05-11T18:02:38.975Z,46.86
2019-05-11T18:05:09.648Z,47.03
2019-05-11T18:07:41.170Z,47.06
2019-05-11T18:10:12.338Z,47.12
2019-05-11T18:12:44.000Z,47.07
2019-05-11T18:15:18.326Z,47.37
2019-05-11T18:17:49.033Z,47.37
2019-05-11T18:20:22.146Z,47.45
2019-05-11T18:22:53.570Z,47.47
2019-05-11T18:25:28.690Z,47.23
2019-05-11T18:28:00.211Z,47.34
2019-05-11T18:30:31.654Z,47.34
2019-05-11T18:33:03.104Z,47.67
2019-05-11T18:35:34.364Z,47.69
2019-05-11T18:38:08.533Z,47.42
2019-05-11T18:40:39.580Z,47.36
2019-05-11T18:43:12.399Z,47.38
2019-05-11T18:45:43.745Z,47.30
2019-05-11T18:48:15.519Z,47.15
2019-05-11T18:50:49.068Z,47.01
2019-05-11T18:53:23.149Z,47.08
2019-05-11T18:55:55.539Z,47.09
2019-05-11T18:58:29.648Z,46.76
2019-05-11T19:01:01.307Z,46.76
2019-05-11T19:03:34.612Z,46.99
2019-05-11T19:06:05.959Z,47.86
2019-05-11T19:08:38.496Z,48.47
2019-05-11T19:11:09.828Z,48.47
2019-05-11T19:13:42.077Z,48.49
2019-05-11T19:16:13.483Z,48.42
2019-05-11T19:18:44.621Z,48.42
2019-05-11T19:21:18.045Z,48.42
2019-05-11T19:23:49.624Z,48.42
2019-05-11T19:26:21.904Z,48.62
2019-05-11T19:28:53.046Z,48.55
2019-05-11T19:31:27.905Z,48.71
2019-05-11T19:33:58.619Z,48.71
2019-05-11T19:36:30.282Z,48.75
2019-05-11T19:39:01.722Z,48.90
2019-05-11T19:41:35.025Z,49.13
2019-05-11T19:44:08.578Z,49.26
2019-05-11T19:46:39.773Z,49.19
2019-05-11T19:49:11.350Z,49.22
2019-05-11T19:51:43.114Z,49.21
2019-05-11T19:54:18.681Z,49.42
2019-05-11T19:56:52.287Z,49.65
2019-05-11T19:59:23.235Z,49.78
2019-05-11T20:01:57.254Z,49.83
2019-05-11T20:04:28.491Z,49.92
2019-05-11T20:07:00.053Z,49.99
2019-05-11T20:09:32.031Z,49.86
2019-05-11T20:12:03.555Z,49.88
2019-05-11T20:14:37.288Z,49.71
2019-05-11T20:17:08.954Z,49.91
2019-05-11T20:19:40.828Z,49.97
2019-05-11T20:22:12.364Z,49.92
2019-05-11T20:24:43.854Z,49.83
2019-05-11T20:27:15.551Z,49.48
2019-05-11T20:29:47.745Z,49.23
2019-05-11T20:32:19.172Z,49.37
2019-05-11T20:34:50.466Z,49.44
2019-05-11T20:37:23.004Z,49.47
2019-05-11T20:39:54.163Z,49.56
2019-05-11T20:42:25.400Z,49.68
2019-05-11T20:44:58.600Z,49.80
2019-05-11T20:47:31.179Z,49.61
2019-05-11T20:50:02.526Z,49.84
2019-05-11T20:52:33.977Z,49.82
2019-05-11T20:55:08.890Z,49.58
2019-05-11T20:57:39.738Z,49.32
2019-05-11T21:00:11.702Z,49.24
2019-05-11T21:02:43.234Z,49.39
2019-05-11T21:05:14.426Z,49.37
2019-05-11T21:07:45.883Z,49.32
2019-05-11T21:10:17.036Z,49.42
2019-05-11T21:12:48.789Z,49.25
2019-05-11T21:15:20.450Z,49.17
2019-05-11T21:17:51.904Z,49.58
2019-05-11T21:20:23.148Z,49.60
2019-05-11T21:22:54.811Z,49.48
2019-05-11T21:25:28.604Z,49.48
2019-05-11T21:27:59.251Z,49.50
2019-05-11T21:30:30.904Z,49.38
2019-05-11T21:33:04.938Z,49.38
2019-05-11T21:35:38.440Z,49.49
2019-05-11T21:38:08.948Z,49.86
2019-05-11T21:40:41.012Z,50.04
2019-05-11T21:43:14.000Z,50.29
2019-05-11T21:45:45.258Z,50.54
2019-05-11T21:48:16.700Z,50.70
2019-05-11T21:50:48.282Z,50.57
2019-05-11T21:53:19.740Z,50.59
2019-05-11T21:55:51.066Z,50.82
2019-05-11T21:58:22.724Z,51.05
2019-05-11T22:00:54.084Z,51.11
2019-05-11T22:03:28.085Z,51.07
2019-05-11T22:06:00.256Z,51.01
2019-05-11T22:08:31.710Z,50.96
2019-05-11T22:11:04.393Z,51.04
2019-05-11T22:13:37.784Z,51.07
2019-05-11T22:16:08.793Z,51.07
2019-05-11T22:18:40.187Z,51.23
2019-05-11T22:21:11.559Z,51.20
2019-05-11T22:23:43.093Z,51.11
2019-05-11T22:26:14.767Z,51.09
2019-05-11T22:28:48.205Z,50.98
2019-05-11T22:31:19.502Z,51.16
2019-05-11T22:33:51.059Z,51.58
2019-05-11T22:36:22.308Z,51.68
2019-05-11T22:38:53.868Z,51.07
2019-05-11T22:41:25.314Z,51.93
2019-05-11T22:43:56.982Z,52.09
2019-05-11T22:46:28.536Z,51.87
2019-05-11T22:49:00.091Z,51.32
2019-05-11T22:51:31.442Z,51.47
2019-05-11T22:54:02.995Z,51.68
2019-05-11T22:56:38.003Z,52.42
2019-05-11T22:59:09.388Z,52.16
2019-05-11T23:01:40.740Z,51.98
2019-05-11T23:04:12.018Z,52.13
2019-05-11T23:06:43.341Z,52.29
2019-05-11T23:09:14.808Z,52.35
2019-05-11T23:11:48.232Z,52.28
2019-05-11T23:14:20.021Z,52.29
2019-05-11T23:16:51.210Z,52.32
2019-05-11T23:19:22.660Z,52.24
2019-05-11T23:21:54.217Z,52.20
2019-05-11T23:24:25.574Z,52.17
2019-05-11T23:26:57.030Z,52.08
2019-05-11T23:29:28.584Z,52.08
2019-05-11T23:32:00.039Z,51.97
2019-05-11T23:34:31.594Z,51.65
2019-05-11T23:37:02.647Z,51.99
2019-05-11T23:39:34.196Z,52.24
2019-05-11T23:42:05.353Z,52.25
2019-05-11T23:44:36.898Z,52.04
2019-05-11T23:47:08.249Z,51.92
2019-05-11T23:49:39.601Z,51.88
2019-05-11T23:52:10.854Z,51.83
2019-05-11T23:54:42.207Z,51.57
2019-05-11T23:57:13.867Z,51.05
2019-05-11T23:59:47.680Z,51.11
